createdAt,value
2023-01-30T00:01:18.148Z,100.00
2023-01-30T00:03:44.994Z,100.00
2023-01-30T00:06:12.053Z,100.00
2023-01-30T00:08:39.187Z,100.00
2023-01-30T00:11:07.547Z,100.00
2023-01-30T00:13:35.066Z,100.00
2023-01-30T00:16:02.071Z,100.00
2023-01-30T00:18:29.163Z,100.00
2023-01-30T00:20:57.103Z,100.00
2023-01-30T00:23:23.588Z,100.00
2023-01-30T00:25:50.704Z,100.00
2023-01-30T00:28:17.753Z,100.00
2023-01-30T00:30:44.764Z,100.00
2023-01-30T00:33:11.537Z,100.00
2023-01-30T00:35:38.069Z,100.00
2023-01-30T00:38:04.511Z,100.00
2023-01-30T00:40:31.184Z,100.00
2023-01-30T00:43:16.404Z,100.00
2023-01-30T00:46:03.883Z,100.00
2023-01-30T00:48:30.978Z,100.00
2023-01-30T00:50:57.603Z,100.00
2023-01-30T00:53:24.834Z,100.00
2023-01-30T00:55:52.076Z,100.00
2023-01-30T00:58:18.973Z,100.00
2023-01-30T01:00:46.578Z,100.00
2023-01-30T01:03:13.596Z,100.00
2023-01-30T01:05:40.223Z,100.00
2023-01-30T01:08:06.944Z,100.00
2023-01-30T01:10:33.505Z,100.00
2023-01-30T01:13:00.648Z,100.00
2023-01-30T01:15:27.390Z,100.00
2023-01-30T01:17:54.755Z,100.00
2023-01-30T01:20:22.372Z,100.00
2023-01-30T01:22:53.836Z,100.00
2023-01-30T01:25:21.279Z,100.00
2023-01-30T01:27:48.280Z,100.00
2023-01-30T01:30:15.064Z,100.00
2023-01-30T01:32:45.014Z,100.00
2023-01-30T01:35:11.886Z,100.00
2023-01-30T01:37:38.643Z,100.00
2023-01-30T01:40:24.983Z,100.00
2023-01-30T01:42:51.643Z,100.00
2023-01-30T01:45:24.573Z,100.00
2023-01-30T01:48:00.568Z,100.00
2023-01-30T01:50:42.701Z,100.00
2023-01-30T01:53:12.431Z,100.00
2023-01-30T01:55:42.114Z,100.00
2023-01-30T01:58:17.456Z,100.00
2023-01-30T02:00:44.191Z,100.00
2023-01-30T02:03:15.695Z,100.00
2023-01-30T02:05:47.969Z,100.00
2023-01-30T02:08:20.987Z,100.00
2023-01-30T02:11:03.553Z,100.00
2023-01-30T02:13:31.189Z,100.00
2023-01-30T02:16:01.852Z,100.00
2023-01-30T02:18:34.414Z,100.00
2023-01-30T02:21:38.725Z,100.00
2023-01-30T02:24:16.279Z,100.00
2023-01-30T02:27:02.174Z,100.00
2023-01-30T02:29:50.324Z,100.00
2023-01-30T02:32:24.708Z,100.00
2023-01-30T02:35:05.566Z,100.00
2023-01-30T02:38:14.630Z,100.00
2023-01-30T02:41:12.220Z,100.00
2023-01-30T02:43:46.741Z,100.00
2023-01-30T02:46:22.561Z,100.00
2023-01-30T02:49:07.620Z,100.00
2023-01-30T02:51:37.182Z,100.00
2023-01-30T02:54:07.136Z,100.00
2023-01-30T02:56:52.647Z,100.00
2023-01-30T02:59:26.814Z,100.00
2023-01-30T03:01:53.261Z,100.00
2023-01-30T03:04:37.485Z,100.00
2023-01-30T03:07:38.888Z,100.00
2023-01-30T03:10:11.354Z,100.00
2023-01-30T03:12:50.012Z,100.00
2023-01-30T03:15:28.719Z,100.00
2023-01-30T03:17:56.140Z,100.00
2023-01-30T03:20:22.792Z,100.00
2023-01-30T03:22:49.564Z,100.00
2023-01-30T03:25:23.488Z,100.00
2023-01-30T03:27:53.581Z,100.00
2023-01-30T03:30:20.718Z,100.00
2023-01-30T03:32:47.266Z,100.00
2023-01-30T03:35:15.458Z,100.00
2023-01-30T03:37:42.256Z,100.00
2023-01-30T03:40:09.865Z,100.00
2023-01-30T03:42:36.536Z,100.00
2023-01-30T03:45:03.461Z,100.00
2023-01-30T03:47:30.143Z,100.00
2023-01-30T03:49:56.639Z,100.00
2023-01-30T03:52:23.681Z,100.00
2023-01-30T03:54:50.343Z,100.00
2023-01-30T03:57:16.845Z,100.00
2023-01-30T03:59:43.485Z,100.00
2023-01-30T04:02:10.366Z,100.00
2023-01-30T04:04:37.499Z,100.00
2023-01-30T04:07:04.084Z,100.00
2023-01-30T04:09:30.519Z,100.00
2023-01-30T04:11:57.047Z,100.00
2023-01-30T04:14:23.614Z,100.00
2023-01-30T04:16:50.299Z,100.00
2023-01-30T04:19:16.952Z,100.00
2023-01-30T04:21:43.482Z,100.00
2023-01-30T04:24:10.101Z,100.00
2023-01-30T04:26:36.729Z,100.00
2023-01-30T04:29:03.625Z,100.00
2023-01-30T04:31:30.729Z,100.00
2023-01-30T04:33:57.773Z,100.00
2023-01-30T04:36:24.417Z,100.00
2023-01-30T04:38:51.020Z,100.00
2023-01-30T04:41:17.517Z,100.00
2023-01-30T04:43:44.116Z,100.00
2023-01-30T04:46:10.675Z,100.00
2023-01-30T04:48:37.291Z,100.00
2023-01-30T04:51:04.064Z,100.00
2023-01-30T04:53:30.573Z,100.00
2023-01-30T04:55:57.225Z,100.00
2023-01-30T04:58:23.817Z,100.00
2023-01-30T05:00:50.384Z,100.00
2023-01-30T05:03:17.321Z,100.00
2023-01-30T05:05:47.182Z,100.00
2023-01-30T05:08:14.214Z,100.00
2023-01-30T05:10:40.843Z,100.00
2023-01-30T05:13:07.559Z,100.00
2023-01-30T05:15:34.088Z,100.00
2023-01-30T05:18:01.163Z,100.00
2023-01-30T05:20:27.995Z,100.00
2023-01-30T05:22:54.584Z,100.00
2023-01-30T05:25:21.739Z,100.00
2023-01-30T05:27:48.342Z,100.00
2023-01-30T05:30:14.967Z,100.00
2023-01-30T05:32:41.553Z,100.00
2023-01-30T05:35:08.667Z,100.00
2023-01-30T05:37:36.241Z,100.00
2023-01-30T05:40:02.870Z,100.00
2023-01-30T05:42:30.433Z,100.00
2023-01-30T05:44:56.931Z,100.00
2023-01-30T05:47:23.387Z,100.00
2023-01-30T05:49:49.954Z,100.00
2023-01-30T05:52:16.532Z,98.13
2023-01-30T05:54:43.273Z,97.92
2023-01-30T05:57:09.822Z,97.11
2023-01-30T05:59:36.355Z,97.29
2023-01-30T06:02:02.825Z,97.29
2023-01-30T06:04:29.353Z,97.54
2023-01-30T06:06:55.916Z,97.98
2023-01-30T06:09:22.518Z,97.53
2023-01-30T06:11:49.049Z,97.77
2023-01-30T06:14:15.644Z,97.64
2023-01-30T06:16:42.369Z,96.94
2023-01-30T06:19:09.058Z,97.18
2023-01-30T06:21:35.568Z,97.04
2023-01-30T06:24:02.496Z,96.50
2023-01-30T06:26:29.036Z,95.91
2023-01-30T06:28:57.900Z,95.74
2023-01-30T06:31:24.689Z,95.39
2023-01-30T06:33:52.706Z,94.87
2023-01-30T06:36:19.303Z,94.13
2023-01-30T06:38:45.947Z,94.57
2023-01-30T06:41:12.913Z,94.80
2023-01-30T06:43:39.504Z,94.37
2023-01-30T06:46:06.128Z,94.40
2023-01-30T06:48:32.647Z,94.52
2023-01-30T06:50:59.282Z,93.19
2023-01-30T06:53:30.374Z,93.15
2023-01-30T06:55:58.688Z,93.78
2023-01-30T06:58:25.691Z,93.39
2023-01-30T07:00:52.250Z,93.23
2023-01-30T07:03:19.004Z,92.62
2023-01-30T07:05:47.672Z,92.54
2023-01-30T07:08:15.920Z,92.50
2023-01-30T07:10:43.264Z,93.14
2023-01-30T07:13:09.915Z,92.68
2023-01-30T07:15:36.740Z,91.93
2023-01-30T07:18:03.525Z,91.49
2023-01-30T07:20:33.725Z,92.01
2023-01-30T07:23:00.712Z,91.47
2023-01-30T07:25:28.545Z,91.90
2023-01-30T07:28:00.217Z,91.99
2023-01-30T07:30:28.369Z,91.79
2023-01-30T07:32:57.914Z,91.35
2023-01-30T07:35:26.373Z,91.44
2023-01-30T07:37:53.379Z,91.24
2023-01-30T07:40:21.027Z,90.99
2023-01-30T07:43:07.501Z,90.73
2023-01-30T07:45:42.408Z,90.37
2023-01-30T07:48:11.294Z,90.31
2023-01-30T07:50:38.445Z,90.21
2023-01-30T07:53:11.953Z,90.19
2023-01-30T07:55:38.689Z,89.77
2023-01-30T07:58:05.455Z,90.05
2023-01-30T08:00:32.537Z,90.03
2023-01-30T08:02:59.295Z,90.40
2023-01-30T08:05:26.452Z,90.33
2023-01-30T08:07:56.177Z,89.81
2023-01-30T08:10:22.784Z,90.17
2023-01-30T08:12:52.645Z,90.19
2023-01-30T08:15:21.205Z,90.13
2023-01-30T08:17:56.715Z,89.18
2023-01-30T08:20:23.780Z,89.46
2023-01-30T08:22:50.367Z,89.20
2023-01-30T08:25:17.089Z,88.99
2023-01-30T08:27:43.699Z,88.34
2023-01-30T08:30:11.487Z,88.09
2023-01-30T08:32:38.187Z,88.46
2023-01-30T08:35:05.696Z,87.63
2023-01-30T08:37:32.344Z,87.21
2023-01-30T08:39:58.790Z,87.25
2023-01-30T08:42:25.338Z,86.40
2023-01-30T08:44:51.865Z,86.49
2023-01-30T08:47:18.365Z,86.56
2023-01-30T08:49:44.883Z,86.38
2023-01-30T08:52:11.467Z,86.23
2023-01-30T08:54:38.060Z,86.02
2023-01-30T08:57:04.510Z,86.22
2023-01-30T08:59:31.016Z,85.70
2023-01-30T09:01:57.481Z,85.36
2023-01-30T09:04:26.551Z,85.43
2023-01-30T09:06:53.817Z,85.20
2023-01-30T09:09:20.471Z,84.88
2023-01-30T09:11:50.072Z,83.95
2023-01-30T09:14:19.691Z,83.91
2023-01-30T09:16:55.952Z,83.75
2023-01-30T09:19:26.535Z,84.55
2023-01-30T09:21:54.799Z,84.22
2023-01-30T09:24:26.987Z,83.78
2023-01-30T09:26:59.001Z,83.73
2023-01-30T09:29:26.590Z,84.00
2023-01-30T09:31:53.884Z,84.17
2023-01-30T09:34:20.528Z,84.16
2023-01-30T09:36:47.018Z,83.85
2023-01-30T09:39:13.482Z,84.16
2023-01-30T09:42:04.967Z,83.55
2023-01-30T09:45:02.502Z,82.45
2023-01-30T09:47:55.472Z,82.84
2023-01-30T09:50:34.304Z,82.62
2023-01-30T09:53:10.113Z,82.22
2023-01-30T09:55:39.782Z,82.23
2023-01-30T09:58:06.419Z,82.16
2023-01-30T10:00:42.215Z,81.84
2023-01-30T10:03:08.855Z,82.40
2023-01-30T10:05:44.378Z,82.28
2023-01-30T10:08:32.136Z,82.14
2023-01-30T10:11:10.732Z,82.36
2023-01-30T10:14:07.293Z,82.98
2023-01-30T10:16:59.315Z,81.88
2023-01-30T10:19:44.173Z,81.79
2023-01-30T10:22:24.082Z,81.65
2023-01-30T10:24:59.679Z,80.62
2023-01-30T10:27:30.652Z,81.14
2023-01-30T10:30:02.468Z,80.82
2023-01-30T10:32:48.601Z,80.38
2023-01-30T10:35:39.311Z,80.79
2023-01-30T10:38:20.182Z,80.53
2023-01-30T10:40:57.084Z,80.61
2023-01-30T10:43:31.573Z,79.98
2023-01-30T10:46:10.268Z,79.88
2023-01-30T10:48:55.498Z,80.16
2023-01-30T10:51:43.286Z,80.88
2023-01-30T10:54:17.488Z,80.29
2023-01-30T10:57:18.250Z,80.46
2023-01-30T11:00:10.341Z,80.06
2023-01-30T11:03:01.221Z,79.31
2023-01-30T11:05:39.586Z,78.33
2023-01-30T11:08:18.699Z,77.21
2023-01-30T11:10:45.329Z,76.93
2023-01-30T11:13:22.581Z,77.16
2023-01-30T11:15:53.290Z,76.43
2023-01-30T11:21:14.697Z,75.33
2023-01-30T11:23:43.225Z,75.64
2023-01-30T11:26:46.774Z,75.46
2023-01-30T11:29:31.374Z,75.89
2023-01-30T11:32:08.492Z,74.39
2023-01-30T11:34:35.016Z,74.53
2023-01-30T11:37:27.326Z,74.70
2023-01-30T11:39:54.329Z,75.22
2023-01-30T11:42:29.606Z,75.39
2023-01-30T11:45:15.735Z,74.86
2023-01-30T11:47:57.654Z,74.67
2023-01-30T11:50:41.888Z,74.74
2023-01-30T11:53:27.631Z,74.36
2023-01-30T11:56:25.049Z,74.78
2023-01-30T11:59:21.027Z,75.53
2023-01-30T12:01:47.667Z,74.79
2023-01-30T12:04:14.774Z,74.71
2023-01-30T12:06:43.481Z,74.49
2023-01-30T12:09:33.716Z,74.54
2023-01-30T12:12:00.258Z,73.58
2023-01-30T12:14:36.477Z,73.34
2023-01-30T12:17:21.516Z,72.27
2023-01-30T12:19:51.107Z,72.30
2023-01-30T12:22:45.925Z,71.97
2023-01-30T12:25:37.099Z,72.16
2023-01-30T12:28:14.783Z,72.57
2023-01-30T12:30:57.424Z,72.36
2023-01-30T12:33:34.727Z,70.84
2023-01-30T12:36:17.082Z,70.56
2023-01-30T12:38:50.110Z,71.40
2023-01-30T12:41:33.378Z,71.25
2023-01-30T12:44:33.014Z,72.07
2023-01-30T12:47:08.691Z,71.56
2023-01-30T12:50:00.258Z,72.52
2023-01-30T12:52:42.151Z,72.26
2023-01-30T12:55:19.979Z,72.13
2023-01-30T12:58:05.193Z,71.24
2023-01-30T13:00:55.232Z,71.27
2023-01-30T13:03:36.047Z,70.76
2023-01-30T13:06:47.678Z,70.88
2023-01-30T13:09:45.487Z,70.60
2023-01-30T13:12:40.152Z,70.83
2023-01-30T13:15:27.946Z,70.60
2023-01-30T13:18:15.209Z,70.68
2023-01-30T13:20:53.964Z,71.01
2023-01-30T13:23:29.903Z,71.29
2023-01-30T13:26:03.976Z,71.05
2023-01-30T13:28:43.195Z,70.87
2023-01-30T13:31:14.993Z,70.62
2023-01-30T13:33:46.156Z,71.53
2023-01-30T13:36:21.128Z,71.28
2023-01-30T13:39:02.985Z,71.51
2023-01-30T13:41:35.700Z,71.61
2023-01-30T13:44:17.454Z,72.49
2023-01-30T13:46:46.983Z,72.20
2023-01-30T13:49:31.822Z,71.32
2023-01-30T13:52:15.649Z,71.91
2023-01-30T13:55:14.718Z,72.06
2023-01-30T13:58:02.644Z,72.13
2023-01-30T14:00:33.715Z,71.86
2023-01-30T14:03:03.476Z,71.63
2023-01-30T14:05:52.226Z,71.86
2023-01-30T14:08:50.279Z,71.64
2023-01-30T14:11:32.414Z,72.00
2023-01-30T14:14:22.983Z,72.15
2023-01-30T14:17:17.639Z,72.43
2023-01-30T14:20:20.380Z,72.06
2023-01-30T14:23:00.611Z,72.08
2023-01-30T14:25:42.963Z,72.53
2023-01-30T14:28:12.464Z,72.13
2023-01-30T14:30:45.245Z,72.01
2023-01-30T14:33:51.348Z,72.37
2023-01-30T14:36:33.221Z,72.56
2023-01-30T14:39:37.692Z,72.60
2023-01-30T14:42:28.501Z,72.37
2023-01-30T14:45:16.141Z,72.83
2023-01-30T14:47:47.123Z,72.61
2023-01-30T14:50:23.021Z,72.79
2023-01-30T14:52:56.100Z,72.80
2023-01-30T14:55:30.045Z,72.90
2023-01-30T14:58:00.400Z,73.41
2023-01-30T15:00:33.568Z,73.23
2023-01-30T15:03:10.092Z,73.38
2023-01-30T15:05:43.624Z,73.47
2023-01-30T15:08:22.781Z,73.39
2023-01-30T15:11:09.308Z,73.34
2023-01-30T15:14:03.410Z,73.84
2023-01-30T15:16:37.833Z,73.78
2023-01-30T15:19:19.705Z,73.29
2023-01-30T15:22:13.119Z,73.88
2023-01-30T15:25:01.455Z,73.63
2023-01-30T15:27:39.296Z,73.81
2023-01-30T15:30:25.247Z,74.01
2023-01-30T15:33:30.045Z,73.94
2023-01-30T15:35:57.897Z,74.19
2023-01-30T15:38:26.623Z,73.99
2023-01-30T15:41:13.540Z,74.18
2023-01-30T15:44:12.152Z,73.94
2023-01-30T15:47:05.018Z,74.13
2023-01-30T15:49:37.686Z,74.66
2023-01-30T15:52:07.206Z,74.87
2023-01-30T15:54:35.191Z,75.16
2023-01-30T15:57:02.001Z,75.19
2023-01-30T15:59:35.201Z,75.20
2023-01-30T16:02:13.781Z,75.51
2023-01-30T16:04:40.723Z,75.95
2023-01-30T16:07:26.500Z,76.61
2023-01-30T16:10:07.600Z,76.74
2023-01-30T16:12:36.638Z,78.16
2023-01-30T16:15:18.440Z,80.71
2023-01-30T16:17:48.961Z,80.30
2023-01-30T16:20:17.526Z,79.63
2023-01-30T16:22:49.161Z,80.25
2023-01-30T16:25:22.399Z,80.99
2023-01-30T16:27:53.535Z,81.96
2023-01-30T16:30:29.555Z,82.19
2023-01-30T16:32:57.504Z,82.80
2023-01-30T16:35:27.082Z,83.03
2023-01-30T16:37:57.021Z,83.44
2023-01-30T16:40:32.024Z,83.46
2023-01-30T16:43:04.377Z,83.41
2023-01-30T16:45:34.267Z,83.61
2023-01-30T16:48:33.073Z,83.90
2023-01-30T16:51:02.773Z,83.55
2023-01-30T16:53:32.680Z,83.72
2023-01-30T16:56:07.669Z,83.94
2023-01-30T16:58:42.704Z,83.96
2023-01-30T17:01:10.328Z,84.14
2023-01-30T17:03:41.333Z,83.87
2023-01-30T17:06:16.911Z,84.05
2023-01-30T17:08:59.454Z,83.99
2023-01-30T17:11:35.102Z,83.99
2023-01-30T17:14:25.892Z,84.62
2023-01-30T17:17:07.561Z,84.65
2023-01-30T17:19:37.925Z,84.70
2023-01-30T17:22:17.832Z,84.94
2023-01-30T17:24:45.364Z,85.26
2023-01-30T17:27:12.126Z,85.21
2023-01-30T17:29:42.757Z,85.65
2023-01-30T17:32:13.807Z,86.35
2023-01-30T17:34:43.015Z,86.20
2023-01-30T17:37:14.016Z,85.73
2023-01-30T17:39:40.555Z,86.23
2023-01-30T17:42:11.273Z,86.47
2023-01-30T17:44:41.063Z,86.48
2023-01-30T17:47:11.423Z,86.42
2023-01-30T17:49:37.981Z,87.32
2023-01-30T17:52:04.732Z,86.81
2023-01-30T17:54:31.359Z,86.97
2023-01-30T17:57:06.775Z,86.86
2023-01-30T17:59:33.548Z,86.41
2023-01-30T18:02:00.307Z,86.96
2023-01-30T18:04:27.359Z,86.57
2023-01-30T18:06:59.017Z,86.21
2023-01-30T18:09:27.037Z,86.60
2023-01-30T18:11:53.751Z,86.40
2023-01-30T18:14:22.200Z,86.17
2023-01-30T18:16:50.064Z,86.79
2023-01-30T18:19:24.236Z,86.60
2023-01-30T18:21:51.065Z,86.81
2023-01-30T18:24:18.611Z,86.83
2023-01-30T18:26:45.728Z,87.38
2023-01-30T18:29:12.739Z,87.98
2023-01-30T18:31:40.845Z,88.44
2023-01-30T18:34:09.920Z,88.42
2023-01-30T18:36:37.066Z,88.12
2023-01-30T18:39:05.356Z,88.63
2023-01-30T18:41:32.291Z,88.92
2023-01-30T18:44:00.960Z,89.19
2023-01-30T18:46:28.682Z,89.80
2023-01-30T18:48:56.509Z,90.12
2023-01-30T18:51:29.056Z,90.22
2023-01-30T18:53:56.567Z,89.95
2023-01-30T18:56:25.759Z,90.44
2023-01-30T18:58:55.026Z,90.57
2023-01-30T19:01:24.260Z,90.71
2023-01-30T19:03:55.564Z,91.16
2023-01-30T19:06:22.919Z,90.57
2023-01-30T19:08:50.128Z,90.67
2023-01-30T19:11:38.367Z,89.81
2023-01-30T19:14:06.139Z,90.04
2023-01-30T19:16:35.896Z,90.24
2023-01-30T19:19:03.112Z,90.49
2023-01-30T19:21:29.912Z,90.36
2023-01-30T19:23:56.761Z,90.17
2023-01-30T19:26:24.881Z,90.59
2023-01-30T19:28:52.343Z,91.06
2023-01-30T19:31:21.828Z,90.86
2023-01-30T19:33:56.290Z,91.21
2023-01-30T19:36:26.763Z,91.30
2023-01-30T19:38:53.687Z,91.53
2023-01-30T19:41:24.441Z,91.46
2023-01-30T19:43:53.048Z,91.43
2023-01-30T19:46:19.739Z,91.46
2023-01-30T19:48:47.419Z,91.99
2023-01-30T19:51:21.158Z,92.11
2023-01-30T19:53:53.734Z,92.46
2023-01-30T19:56:22.318Z,92.32
2023-01-30T19:58:50.873Z,92.74
2023-01-30T20:01:19.494Z,92.62
2023-01-30T20:03:46.191Z,92.84
2023-01-30T20:06:18.201Z,93.03
2023-01-30T20:08:46.737Z,93.38
2023-01-30T20:11:15.435Z,93.56
2023-01-30T20:13:42.629Z,93.77
2023-01-30T20:16:12.281Z,93.50
2023-01-30T20:18:40.079Z,94.03
2023-01-30T20:21:19.016Z,93.91
2023-01-30T20:23:47.247Z,94.28
2023-01-30T20:26:16.693Z,94.22
2023-01-30T20:28:43.549Z,94.22
2023-01-30T20:31:12.873Z,94.48
2023-01-30T20:33:39.838Z,94.97
2023-01-30T20:36:09.410Z,95.09
2023-01-30T20:38:38.706Z,94.89
2023-01-30T20:41:26.304Z,95.20
2023-01-30T20:43:56.578Z,95.23
2023-01-30T20:46:27.359Z,95.46
2023-01-30T20:48:56.278Z,95.17
2023-01-30T20:51:25.367Z,95.40
2023-01-30T20:53:55.247Z,95.45
2023-01-30T20:56:23.317Z,95.57
2023-01-30T20:58:50.094Z,95.49
2023-01-30T21:01:20.038Z,95.89
2023-01-30T21:03:50.310Z,95.92
2023-01-30T21:06:37.258Z,96.17
2023-01-30T21:09:22.891Z,96.15
2023-01-30T21:11:52.525Z,95.90
2023-01-30T21:14:19.191Z,96.28
2023-01-30T21:16:46.489Z,95.93
2023-01-30T21:19:16.563Z,96.36
2023-01-30T21:21:53.456Z,96.38
2023-01-30T21:24:23.950Z,96.58
2023-01-30T21:26:51.313Z,96.35
2023-01-30T21:29:20.741Z,96.66
2023-01-30T21:31:50.715Z,96.76
2023-01-30T21:34:17.378Z,96.67
2023-01-30T21:36:43.951Z,96.73
2023-01-30T21:39:32.128Z,96.84
2023-01-30T21:42:17.214Z,97.01
2023-01-30T21:44:43.615Z,97.09
2023-01-30T21:47:10.304Z,97.10
2023-01-30T21:49:37.039Z,97.33
2023-01-30T21:52:03.990Z,96.96
2023-01-30T21:54:30.616Z,97.09
2023-01-30T21:56:57.152Z,97.19
2023-01-30T21:59:23.670Z,97.25
2023-01-30T22:01:50.989Z,97.56
2023-01-30T22:04:17.802Z,97.71
2023-01-30T22:06:44.586Z,97.68
2023-01-30T22:09:15.550Z,97.56
2023-01-30T22:11:43.036Z,97.75
2023-01-30T22:14:13.250Z,97.65
2023-01-30T22:16:39.808Z,97.62
2023-01-30T22:19:06.439Z,97.57
2023-01-30T22:21:36.346Z,97.58
2023-01-30T22:24:05.423Z,97.93
2023-01-30T22:26:32.375Z,97.75
2023-01-30T22:29:00.298Z,97.89
2023-01-30T22:31:31.276Z,98.21
2023-01-30T22:33:57.951Z,97.50
2023-01-30T22:36:27.139Z,97.44
2023-01-30T22:38:54.297Z,97.59
2023-01-30T22:41:25.377Z,97.70
2023-01-30T22:43:55.576Z,97.75
2023-01-30T22:46:31.498Z,97.82
2023-01-30T22:49:00.009Z,98.10
2023-01-30T22:51:32.306Z,98.46
2023-01-30T22:54:01.836Z,98.48
2023-01-30T22:56:37.092Z,98.63
2023-01-30T22:59:05.002Z,98.50
2023-01-30T23:01:34.782Z,98.88
2023-01-30T23:04:07.657Z,98.55
2023-01-30T23:06:34.715Z,98.63
2023-01-30T23:09:01.559Z,98.39
2023-01-30T23:11:42.286Z,98.98
2023-01-30T23:14:14.604Z,98.81
2023-01-30T23:16:43.397Z,98.68
2023-01-30T23:19:12.202Z,98.92
2023-01-30T23:21:45.394Z,99.11
2023-01-30T23:24:16.908Z,98.80
2023-01-30T23:26:46.267Z,98.92
2023-01-30T23:29:15.102Z,99.52
2023-01-30T23:31:42.969Z,99.31
2023-01-30T23:34:18.744Z,99.42
2023-01-30T23:36:46.145Z,99.04
2023-01-30T23:39:13.597Z,99.42
2023-01-30T23:41:40.850Z,99.68
2023-01-30T23:44:07.740Z,99.08
2023-01-30T23:46:40.059Z,99.50
2023-01-30T23:49:12.288Z,99.49
2023-01-30T23:51:41.973Z,99.63
2023-01-30T23:54:09.737Z,99.39
2023-01-30T23:56:39.069Z,99.33
2023-01-30T23:59:06.408Z,99.52
